Time;durP1;ratioP1;P1;durP2;ratioP2;P2;SDS_P1;SDS_P2;PMS_P1;PMS_P2;Temp;Humidity;BMP_temperature;BMP_pressure;BME280_temperature;BME280_humidity;BME280_pressure;Samples;Min_cycle;Max_cycle;Signal;HPM_P1;HPM_P2
2023/06/21 00:04:14;;;;;;;6.10;3.10;;;;;;;;;;21080812;28;20773;-69
2023/06/21 00:14:15;;;;;;;3.17;2.03;;;;;;;;;;21079632;28;20135;-68
2023/06/21 00:24:16;;;;;;;7.05;4.07;;;;;;;;;;21079818;28;20089;-69
2023/06/21 00:34:17;;;;;;;5.03;2.50;;;;;;;;;;21078116;28;20040;-69
2023/06/21 00:44:19;;;;;;;4.47;1.88;;;;;;;;;;21091028;28;20040;-68
2023/06/21 00:54:21;;;;;;;3.65;2.22;;;;;;;;;;21095101;28;20469;-68
2023/06/21 01:04:25;;;;;;;4.13;2.30;;;;;;;;;;21094236;28;20405;-68
2023/06/21 01:14:45;;;;;;;4.00;2.45;;;;;;;;;;21092087;28;20047;-68
2023/06/21 01:25:06;;;;;;;4.60;2.17;;;;;;;;;;21092669;28;20058;-68
2023/06/21 01:35:08;;;;;;;3.35;2.10;;;;;;;;;;21091074;28;20056;-68
2023/06/21 01:45:10;;;;;;;6.03;2.33;;;;;;;;;;21090710;28;20111;-68
2023/06/21 01:55:11;;;;;;;3.30;1.92;;;;;;;;;;21089225;28;20070;-68
2023/06/21 02:05:13;;;;;;;3.70;2.08;;;;;;;;;;21088147;28;20101;-68
2023/06/21 02:15:15;;;;;;;2.67;1.75;;;;;;;;;;21087550;28;20181;-69
2023/06/21 02:25:17;;;;;;;3.45;1.88;;;;;;;;;;21087867;28;20040;-68
2023/06/21 02:35:18;;;;;;;3.10;1.67;;;;;;;;;;21086100;28;20437;-68
2023/06/21 02:45:19;;;;;;;3.75;1.70;;;;;;;;;;21086083;28;20072;-68
2023/06/21 02:55:20;;;;;;;3.30;1.77;;;;;;;;;;21085516;28;20439;-68
2023/06/21 03:05:21;;;;;;;3.10;1.90;;;;;;;;;;21084641;28;20048;-69
2023/06/21 03:15:22;;;;;;;6.40;2.38;;;;;;;;;;21083674;28;20485;-68
2023/06/21 03:25:23;;;;;;;4.10;2.38;;;;;;;;;;21081642;28;20059;-68
2023/06/21 03:35:28;;;;;;;2.72;1.52;;;;;;;;;;21082445;28;20048;-68
2023/06/21 03:45:29;;;;;;;3.58;1.63;;;;;;;;;;21082963;28;20569;-68
2023/06/21 03:55:31;;;;;;;4.03;2.25;;;;;;;;;;21081256;28;20542;-68
2023/06/21 04:05:32;;;;;;;3.97;1.90;;;;;;;;;;21080869;28;20081;-68
2023/06/21 04:15:33;;;;;;;5.90;2.33;;;;;;;;;;21086397;28;20073;-68
2023/06/21 04:25:34;;;;;;;3.88;2.28;;;;;;;;;;21097251;28;20109;-68
2023/06/21 04:35:36;;;;;;;2.35;1.75;;;;;;;;;;21097021;28;20500;-68
2023/06/21 04:45:37;;;;;;;4.70;1.83;;;;;;;;;;21094358;28;20098;-68
2023/06/21 04:55:42;;;;;;;2.78;1.60;;;;;;;;;;21094854;28;20047;-68
2023/06/21 05:05:43;;;;;;;5.05;2.22;;;;;;;;;;21094057;28;20052;-68
2023/06/21 05:15:44;;;;;;;3.22;2.15;;;;;;;;;;21093968;28;20123;-68
2023/06/21 05:25:45;;;;;;;4.05;1.83;;;;;;;;;;21092400;28;20124;-68
2023/06/21 05:35:46;;;;;;;4.57;2.22;;;;;;;;;;21090576;28;20105;-68
2023/06/21 05:45:47;;;;;;;3.78;2.03;;;;;;;;;;21089632;28;20058;-67
2023/06/21 05:55:49;;;;;;;5.65;2.45;;;;;;;;;;21089638;28;20080;-68
2023/06/21 06:05:50;;;;;;;5.07;1.88;;;;;;;;;;21087656;28;20172;-68
2023/06/21 06:15:51;;;;;;;4.57;2.25;;;;;;;;;;21088105;28;20119;-68
2023/06/21 06:25:52;;;;;;;8.85;2.30;;;;;;;;;;21087314;28;20050;-68
2023/06/21 06:35:53;;;;;;;3.33;1.95;;;;;;;;;;21085050;28;20052;-68
2023/06/21 06:45:54;;;;;;;4.93;2.33;;;;;;;;;;21085783;28;20458;-68
2023/06/21 06:55:58;;;;;;;8.43;2.30;;;;;;;;;;21084896;28;20071;-68
2023/06/21 07:05:59;;;;;;;5.43;2.60;;;;;;;;;;21081891;28;20096;-68
2023/06/21 07:16:01;;;;;;;6.60;2.83;;;;;;;;;;21081762;28;20036;-69
2023/06/21 07:26:02;;;;;;;7.03;3.67;;;;;;;;;;21082821;28;20055;-68
2023/06/21 07:36:04;;;;;;;11.70;3.67;;;;;;;;;;21080679;28;20058;-68
2023/06/21 07:46:05;;;;;;;6.72;3.15;;;;;;;;;;21081520;28;20512;-68
2023/06/21 07:56:06;;;;;;;9.30;3.13;;;;;;;;;;21078826;28;20083;-72
2023/06/21 08:06:07;;;;;;;8.45;3.75;;;;;;;;;;21079086;28;20097;-63
2023/06/21 08:16:08;;;;;;;5.35;3.28;;;;;;;;;;21079995;28;20413;-61
2023/06/21 08:26:09;;;;;;;13.27;3.30;;;;;;;;;;21078644;28;20046;-61
2023/06/21 08:36:11;;;;;;;7.82;3.25;;;;;;;;;;21077902;28;20565;-67
2023/06/21 08:46:13;;;;;;;7.35;3.22;;;;;;;;;;21078956;28;20499;-62
2023/06/21 08:56:18;;;;;;;10.15;4.80;;;;;;;;;;21076613;28;20036;-60
2023/06/21 09:06:22;;;;;;;7.53;3.45;;;;;;;;;;21089806;28;20113;-61
2023/06/21 09:16:24;;;;;;;5.72;2.88;;;;;;;;;;21091964;28;20040;-62
2023/06/21 09:26:25;;;;;;;7.45;3.33;;;;;;;;;;21090910;28;20036;-63
2023/06/21 09:36:26;;;;;;;6.07;3.05;;;;;;;;;;21088353;28;20044;-60
2023/06/21 09:46:27;;;;;;;3.95;2.05;;;;;;;;;;21089489;28;20048;-65
2023/06/21 09:56:33;;;;;;;4.68;2.10;;;;;;;;;;21088764;28;20546;-63
2023/06/21 10:06:34;;;;;;;7.73;2.40;;;;;;;;;;21088767;28;20056;-64
2023/06/21 10:16:35;;;;;;;3.22;1.73;;;;;;;;;;21086593;28;20109;-68
2023/06/21 10:26:37;;;;;;;3.97;2.03;;;;;;;;;;21085933;28;20044;-66
2023/06/21 10:36:42;;;;;;;3.80;1.75;;;;;;;;;;21085415;28;20052;-67
2023/06/21 10:46:45;;;;;;;4.53;1.97;;;;;;;;;;21084366;28;20051;-67
2023/06/21 10:56:46;;;;;;;3.35;1.77;;;;;;;;;;21084848;28;20048;-67
2023/06/21 11:06:48;;;;;;;6.25;2.00;;;;;;;;;;21084131;28;20048;-68
2023/06/21 11:16:49;;;;;;;5.35;2.60;;;;;;;;;;21082919;28;20481;-66
2023/06/21 11:27:03;;;;;;;3.58;2.42;;;;;;;;;;21083060;28;20512;-66
2023/06/21 11:37:23;;;;;;;6.72;2.50;;;;;;;;;;21079723;28;20078;-67
2023/06/21 11:47:24;;;;;;;6.38;2.55;;;;;;;;;;21080893;28;20083;-67
2023/06/21 11:57:25;;;;;;;3.25;2.25;;;;;;;;;;21080750;28;20047;-68
2023/06/21 12:07:26;;;;;;;3.40;2.50;;;;;;;;;;21079810;28;20048;-68
2023/06/21 12:17:27;;;;;;;3.78;2.28;;;;;;;;;;21080030;28;20048;-68
2023/06/21 12:27:28;;;;;;;6.13;3.00;;;;;;;;;;21077075;28;20052;-68
2023/06/21 12:37:31;;;;;;;3.95;2.53;;;;;;;;;;21084915;28;20060;-68
2023/06/21 12:47:32;;;;;;;4.95;2.10;;;;;;;;;;21095540;28;20393;-68
2023/06/21 12:57:34;;;;;;;5.03;2.50;;;;;;;;;;21094779;28;20382;-68
2023/06/21 13:07:35;;;;;;;5.72;2.42;;;;;;;;;;21091813;28;20048;-68
2023/06/21 13:17:37;;;;;;;4.93;2.88;;;;;;;;;;21092995;28;20061;-68
2023/06/21 13:27:38;;;;;;;4.15;2.67;;;;;;;;;;21092454;28;20048;-67
2023/06/21 13:37:39;;;;;;;10.18;6.00;;;;;;;;;;21090158;28;20044;-68
2023/06/21 13:47:40;;;;;;;5.32;2.67;;;;;;;;;;21089417;28;20075;-67
2023/06/21 13:57:42;;;;;;;6.63;2.70;;;;;;;;;;21089765;28;20127;-67
2023/06/21 14:07:44;;;;;;;5.70;3.22;;;;;;;;;;21089179;28;20449;-68
2023/06/21 14:17:45;;;;;;;4.20;2.45;;;;;;;;;;21087236;28;20048;-69
2023/06/21 14:27:47;;;;;;;5.30;2.75;;;;;;;;;;21087383;28;20040;-68
2023/06/21 14:37:51;;;;;;;2.95;2.15;;;;;;;;;;21086995;28;20055;-67
2023/06/21 14:47:54;;;;;;;3.38;2.33;;;;;;;;;;21086040;28;20409;-68
2023/06/21 14:57:55;;;;;;;3.95;2.38;;;;;;;;;;21084467;28;20051;-68
2023/06/21 15:07:57;;;;;;;4.68;1.98;;;;;;;;;;21084066;28;20055;-67
2023/06/21 15:17:58;;;;;;;11.60;6.43;;;;;;;;;;21083566;28;20044;-68
2023/06/21 15:27:59;;;;;;;7.70;4.82;;;;;;;;;;21082736;28;20044;-68
2023/06/21 15:38:01;;;;;;;4.25;2.40;;;;;;;;;;21081145;28;20063;-67
2023/06/21 15:48:02;;;;;;;5.45;2.50;;;;;;;;;;21079442;28;20084;-67
2023/06/21 15:58:05;;;;;;;4.50;3.33;;;;;;;;;;21079344;28;20097;-68
2023/06/21 16:08:06;;;;;;;8.90;5.55;;;;;;;;;;21077665;28;20055;-68
2023/06/21 16:18:07;;;;;;;5.30;2.15;;;;;;;;;;21079369;28;20070;-67
2023/06/21 16:28:08;;;;;;;4.13;1.98;;;;;;;;;;21079200;28;20113;-69
2023/06/21 16:38:09;;;;;;;4.80;3.00;;;;;;;;;;21077618;28;20397;-69
2023/06/21 16:48:10;;;;;;;6.22;3.70;;;;;;;;;;21077609;28;20036;-68
2023/06/21 16:58:12;;;;;;;5.22;2.88;;;;;;;;;;21077902;28;20044;-68
2023/06/21 17:08:13;;;;;;;5.60;3.60;;;;;;;;;;21076965;28;20071;-67
2023/06/21 17:18:14;;;;;;;5.70;2.70;;;;;;;;;;21075923;28;20044;-66
2023/06/21 17:28:15;;;;;;;7.03;4.63;;;;;;;;;;21089098;28;20090;-69
2023/06/21 17:38:16;;;;;;;8.07;3.95;;;;;;;;;;21092792;28;20117;-68
2023/06/21 17:48:17;;;;;;;9.85;2.80;;;;;;;;;;21090521;28;20421;-60
2023/06/21 17:58:18;;;;;;;6.00;2.47;;;;;;;;;;21089916;28;20408;-59
2023/06/21 18:08:19;;;;;;;10.55;3.83;;;;;;;;;;21087634;28;20052;-58
2023/06/21 18:18:24;;;;;;;7.18;3.20;;;;;;;;;;21086948;28;20043;-60
2023/06/21 18:28:25;;;;;;;7.72;3.20;;;;;;;;;;21085594;28;20048;-67
2023/06/21 18:38:26;;;;;;;7.45;3.35;;;;;;;;;;21085750;28;20044;-66
2023/06/21 18:48:27;;;;;;;12.05;4.03;;;;;;;;;;21084889;28;20048;-67
2023/06/21 18:58:28;;;;;;;7.97;4.75;;;;;;;;;;21082399;28;20071;-68
2023/06/21 19:08:29;;;;;;;8.57;3.67;;;;;;;;;;21084079;28;20492;-69
2023/06/21 19:18:31;;;;;;;7.47;3.85;;;;;;;;;;21082796;28;20469;-69
2023/06/21 19:28:32;;;;;;;7.97;3.15;;;;;;;;;;21082282;28;20044;-68
2023/06/21 19:38:33;;;;;;;4.72;2.90;;;;;;;;;;21080229;28;20055;-69
2023/06/21 19:48:34;;;;;;;5.38;3.20;;;;;;;;;;21079043;28;20052;-69
2023/06/21 19:58:36;;;;;;;7.05;3.28;;;;;;;;;;21077767;28;20047;-70
2023/06/21 20:08:37;;;;;;;6.82;3.00;;;;;;;;;;21078788;28;20077;-70
2023/06/21 20:18:41;;;;;;;7.55;3.30;;;;;;;;;;21078387;28;20047;-69
2023/06/21 20:28:42;;;;;;;5.95;2.78;;;;;;;;;;21076367;28;20040;-69
2023/06/21 20:38:44;;;;;;;5.47;2.75;;;;;;;;;;21075696;28;20386;-69
2023/06/21 20:48:45;;;;;;;5.82;2.67;;;;;;;;;;21077299;28;20123;-69
2023/06/21 20:58:46;;;;;;;5.03;2.45;;;;;;;;;;21085317;28;20044;-70
2023/06/21 21:08:49;;;;;;;4.55;2.30;;;;;;;;;;21092547;28;20134;-70
2023/06/21 21:18:50;;;;;;;5.57;2.50;;;;;;;;;;21092959;28;20110;-68
2023/06/21 21:28:51;;;;;;;3.85;2.20;;;;;;;;;;21092064;28;20036;-69
2023/06/21 21:38:54;;;;;;;4.20;2.00;;;;;;;;;;21090150;28;20102;-69
2023/06/21 21:48:55;;;;;;;5.82;2.60;;;;;;;;;;21090702;28;20048;-69
2023/06/21 21:58:56;;;;;;;4.35;2.30;;;;;;;;;;21090045;28;20084;-69
2023/06/21 22:08:57;;;;;;;3.25;1.73;;;;;;;;;;21088146;28;20170;-70
2023/06/21 22:18:58;;;;;;;3.75;2.30;;;;;;;;;;21088499;28;20370;-70
2023/06/21 22:29:00;;;;;;;8.10;3.33;;;;;;;;;;21087796;28;20507;-69
2023/06/21 22:39:01;;;;;;;8.60;3.15;;;;;;;;;;21085501;28;20052;-68
2023/06/21 22:49:04;;;;;;;4.95;3.10;;;;;;;;;;21086241;28;20044;-69
2023/06/21 22:59:05;;;;;;;7.22;3.30;;;;;;;;;;21085553;28;20041;-69
2023/06/21 23:09:06;;;;;;;6.97;3.70;;;;;;;;;;21083638;28;20083;-69
2023/06/21 23:19:12;;;;;;;6.13;3.65;;;;;;;;;;21082606;28;20090;-67
2023/06/21 23:29:13;;;;;;;10.60;4.03;;;;;;;;;;21082401;28;20048;-69
2023/06/21 23:39:15;;;;;;;7.03;3.95;;;;;;;;;;21083906;28;20048;-69
2023/06/21 23:49:16;;;;;;;8.75;3.58;;;;;;;;;;21081395;28;20047;-67
2023/06/21 23:59:17;;;;;;;7.13;3.67;;;;;;;;;;21080321;28;20040;-68
